Alyeska Resort
Max's Hourly Weather Roundup
ALYESKA_MAX 10/24/2014
Click Here for Graph

        DATE  TIME   Air  Wind  Wind  Wind  BATT   Rel
                    Temp   Spd   Dir  Gust  Volt  Hum%
                      F   MPH   AVG   MPH   AVG   AVG

  10/24/2014 07:00    28     4    71     8 12.69    93
  10/24/2014 06:00    28     2   158     7 12.70    93
  10/24/2014 05:00    28     4   147    10 12.70    93
  10/24/2014 04:00    28     3    73    10 12.71    86
  10/24/2014 03:00    27     3   127     6 12.73    81
  10/24/2014 02:00    26     1   254     3 12.75    80
  10/24/2014 01:00    26     3   212     5 12.78    78
  10/23/2014 24:00    24     1   212     3 12.81    86
  10/23/2014 23:00    23     1   186     4 12.85    88
  10/23/2014 22:00    23     2   186     5 12.90    91
  10/23/2014 21:00    23     3   200     6 12.96    91
  10/23/2014 20:00    22     4   183     7 13.06    95
  10/23/2014 19:00    22     5   171     8 13.22    95
  10/23/2014 18:00    24     3   157     6 13.60    92
  10/23/2014 17:00    25     5   176     7 13.69    93
  10/23/2014 16:00    28     4   152     7 13.64    81
  10/23/2014 15:00    28     4   150     7 13.62    79
  10/23/2014 14:00    25     4   163     9 13.65    84
  10/23/2014 13:00    24     8   159    12 13.60    89
  10/23/2014 12:00    25     5   168     7 13.59    87
  10/23/2014 11:00    26     2   171     7 13.67    85
  10/23/2014 10:00    24     5   156     9 13.20    90
  10/23/2014 09:00    24     6   174    10 12.70    91
  10/23/2014 08:00    24     6   178     9 12.70    89


Click Here for Graph